Date Section Release

2019-02-20 05:55:4756s ago XXX EroticaX.19.02.20.Violet.Rain.Runners.High.XXX.1080p.MP4-KTR

2019-02-20 05:54:471m56s ago TV-XVID House.Hunters.S163E10.Charleston.Charm.on.a.Budget.WEB.x264-CAFFEiNE

2019-02-20 05:54:451m58s ago XXX MommyBlowsBest.19.02.20.Christie.Stevens.Filming.Stepmom.XXX.1080p.MP4-KTR

2019-02-20 05:53:203m23s ago TV-X264 Graveyard.Carz.S10E10.Carbituary_Cuda.iNTERNAL.720p.HDTV.x264-DHD

2019-02-20 05:51:055m38s ago TV-XVID How.The.Other.Kids.Live.S01E03.HDTV.x264-PLUTONiUM

2019-02-20 05:50:336m10s ago TV-X264 House.Hunters.S163E10.Charleston.Charm.on.a.Budget.720p.WEB.x264-CAFFEiNE

2019-02-20 05:50:036m40s ago TV-X264 How.The.Other.Kids.Live.S01E03.720p.HDTV.x264-PLUTONiUM

2019-02-20 05:49:476m56s ago TV-XVID Heartbreak.Island.S02E01.HDTV.x264-FiHTV

2019-02-20 05:49:017m42s ago PRE How.The.Other.Kids.Live.S01E03.1080p.HDTV.h264-PLUTONiUM

2019-02-20 05:48:507m53s ago TV-XVID Boomerang.2019.S01E03.Power.HDTV.x264-CRiMSON

2019-02-20 05:48:288m15s ago TV-X264 House.Hunters.S163E10.Charleston.Charm.on.a.Budget.1080p.WEB.x264-CAFFEiNE

2019-02-20 05:48:178m26s ago TV-XVID American.Soul.S01E04.Just.Us.HDTV.x264-CRiMSON

2019-02-20 05:48:078m36s ago TV-X264 Heartbreak.Island.S02E01.720p.HDTV.x264-FiHTV

2019-02-20 05:46:0810m35s ago TV-X264 Dancing.With.The.Stars.AU.S16E01.1080p.HDTV.x264-CCT

2019-02-20 05:45:5010m53s ago XXX ShareMyBF.19.02.20.Arietta.Adams.And.Katana.Kombat.The.Great.Outdoor.Threesome.XXX.1080p.MP4-KTR

2019-02-20 05:44:4911m54s ago TV-X264 I.Am.Jazz.S05E08.720p.WEBRip.x264-TBS

2019-02-20 05:44:0612m37s ago XXX HotAndMean.19.02.20.Lauren.Phillips.And.Kimber.Woods.Playing.Footsie.XXX.1080p.MP4-KTR

2019-02-20 05:42:5513m48s ago XXX Babes.19.02.20.Aspen.Celeste.Smoking.Hot.Aspen.XXX.1080p.MP4-KTR

2019-02-20 05:41:3415m9s ago MP3 Jan_Spaleny_and_aspm-Nemuzu_popadnout_tvuj_dech-WEB-CZ-2019-I_KnoW

2019-02-20 05:40:1016m33s ago TV-XVID I.Am.Jazz.S05E08.WEBRip.x264-TBS

2019-02-20 05:39:2117m22s ago XXX MilfsLikeItBig.19.02.20.Julianna.Vega.Cone.Of.Shamelessness.XXX.1080p.MP4-KTR

2019-02-20 05:31:2325m20s ago PRE Uppdrag.Granskning.S37E21.SWEDiSH.720p.WEB.H264-EXECUTION

2019-02-20 05:26:4529m58s ago TV-XVID Food.Truck.Nation.S01E07.Shrimp.Tacos.Mofongo.Pita.WEBRip.x264-CAFFEiNE

2019-02-20 05:24:2232m21s ago TV-X264 Norge.Naa.S03E28.NORWEGiAN.720p.HDTV.x264-NORPiLT

2019-02-20 05:23:5132m52s ago TV-X264 Food.Truck.Nation.S01E07.Shrimp.Tacos.Mofongo.Pita.720p.WEBRip.x264-CAFFEiNE

2,052,462 releases since 2014-03-27 00:49:27. First release logged is Dubiosity-Ghost_Scepter-(TRANSLUCENT071)-WEB-2014-BPM.